Montgomery, New York
Current Conditions -  °F | °C
As of 6:54 AM on Tuesday 27 Jan 2015 (Local Time) from KMGJ Reporting Station
Overcast Overcast  
Wind Chill: 18°   Ceiling: 9000
Heat Index: 18°   Visibility: 10mi
Dew Point: 13°   Wind: 3mph
Humidity: 81%   Direction: 360°N
Pressure: 29.71"   Gusts: NA
Location:  41.53°N, 74.24°W
Report Text: KMGJ 271154Z AUTO 36003KT 10SM FEW065 OVC090 M08/M11 A2971 RMK AO2 SNE30 SLP065 P0000 60000 T10781106 11061 21078 55004 TSNO
Loading
Personal Weather Stations






























Interactive Weather Map New forecast layout! Learn more

10-Day Weather Forecast

Advertisements
Track Severe Weather on mobile